<?xml version="1.0" encoding="UTF-8" standalone="no" ?>
<gpx xmlns="http://www.topografix.com/GPX/1/1" xmlns:xsi="http://www.w3.org/2001/XMLSchema-instance" xsi:schemaLocation="http://www.topografix.com/GPX/1/1 http://www.topografix.com/GPX/1/1/gpx.xsd" version="1.1" creator="VisuGPX - https://www.visugpx.com">
  <metadata>
    <name>Double boucle, Sapin Bellier et Col de Liorin</name>
  </metadata>
  <wpt lat="45.06026" lon="5.52296">
    <ele>1133</ele>
    <name><![CDATA[Parking route de Bois Barbu]]></name>
  </wpt>
  <wpt lat="45.05396" lon="5.51517">
    <ele>1154</ele>
    <name><![CDATA[Carrefour RF Galmiche]]></name>
  </wpt>
  <wpt lat="45.04604" lon="5.52187">
    <ele>1233</ele>
    <name><![CDATA[Généty]]></name>
  </wpt>
  <wpt lat="45.04669" lon="5.51383">
    <ele>1237</ele>
    <name><![CDATA[Carrefour vers Sapin Bélier]]></name>
  </wpt>
  <wpt lat="45.03864" lon="5.51379">
    <ele>1301</ele>
    <name><![CDATA[Belvédère ]]></name>
  </wpt>
  <wpt lat="45.03958" lon="5.52194">
    <ele>1198</ele>
    <name><![CDATA[Croix Verte]]></name>
  </wpt>
  <wpt lat="45.04533" lon="5.52225">
    <ele>1238</ele>
    <name><![CDATA[Genety]]></name>
  </wpt>
  <wpt lat="45.06177" lon="5.52871">
    <ele>1187</ele>
    <name><![CDATA[Carrefour les Montauds]]></name>
  </wpt>
  <wpt lat="45.0606" lon="5.52349">
    <ele>1136</ele>
    <name><![CDATA[Parking route de Bois Barbu]]></name>
  </wpt>
  <trk>
    <name><![CDATA[Double boucle, Sapin Bellier et Col de Liorin]]></name>
    <trkseg>
      <trkpt lat="45.06026" lon="5.52296">
        <ele>1133</ele>
        <time>2020-10-25T10:23:12+01:00</time>
      </trkpt>
      <trkpt lat="45.05973" lon="5.52235">
        <ele>1129</ele>
        <time>2020-10-25T10:25:20+01:00</time>
      </trkpt>
      <trkpt lat="45.05913" lon="5.5219">
        <ele>1126</ele>
        <time>2020-10-25T10:27:28+01:00</time>
      </trkpt>
      <trkpt lat="45.0585" lon="5.52154">
        <ele>1122</ele>
        <time>2020-10-25T10:27:28+01:00</time>
      </trkpt>
      <trkpt lat="45.05881" lon="5.52069">
        <ele>1115</ele>
        <time>2020-10-25T10:29:36+01:00</time>
      </trkpt>
      <trkpt lat="45.05899" lon="5.51976">
        <ele>1107</ele>
        <time>2020-10-25T10:31:44+01:00</time>
      </trkpt>
      <trkpt lat="45.0592" lon="5.51884">
        <ele>1101</ele>
        <time>2020-10-25T10:33:52+01:00</time>
      </trkpt>
      <trkpt lat="45.05939" lon="5.5179">
        <ele>1095</ele>
        <time>2020-10-25T10:33:52+01:00</time>
      </trkpt>
      <trkpt lat="45.05905" lon="5.51707">
        <ele>1090</ele>
        <time>2020-10-25T10:36:00+01:00</time>
      </trkpt>
      <trkpt lat="45.05852" lon="5.51646">
        <ele>1091</ele>
        <time>2020-10-25T10:36:00+01:00</time>
      </trkpt>
      <trkpt lat="45.05785" lon="5.51631">
        <ele>1096</ele>
        <time>2020-10-25T10:38:08+01:00</time>
      </trkpt>
      <trkpt lat="45.05717" lon="5.51639">
        <ele>1102</ele>
        <time>2020-10-25T10:38:08+01:00</time>
      </trkpt>
      <trkpt lat="45.05647" lon="5.51619">
        <ele>1113</ele>
        <time>2020-10-25T10:40:16+01:00</time>
      </trkpt>
      <trkpt lat="45.05585" lon="5.51608">
        <ele>1125</ele>
        <time>2020-10-25T10:42:24+01:00</time>
      </trkpt>
      <trkpt lat="45.05521" lon="5.51589">
        <ele>1142</ele>
        <time>2020-10-25T10:44:32+01:00</time>
      </trkpt>
      <trkpt lat="45.0546" lon="5.51547">
        <ele>1149</ele>
        <time>2020-10-25T10:46:40+01:00</time>
      </trkpt>
      <trkpt lat="45.05396" lon="5.51517">
        <ele>1154</ele>
        <time>2020-10-25T10:48:48+01:00</time>
      </trkpt>
      <trkpt lat="45.05363" lon="5.51601">
        <ele>1154</ele>
        <time>2020-10-25T10:53:04+01:00</time>
      </trkpt>
      <trkpt lat="45.05309" lon="5.51661">
        <ele>1160</ele>
        <time>2020-10-25T10:53:04+01:00</time>
      </trkpt>
      <trkpt lat="45.05259" lon="5.51724">
        <ele>1165</ele>
        <time>2020-10-25T10:55:12+01:00</time>
      </trkpt>
      <trkpt lat="45.05196" lon="5.51761">
        <ele>1170</ele>
        <time>2020-10-25T10:57:20+01:00</time>
      </trkpt>
      <trkpt lat="45.05128" lon="5.51769">
        <ele>1175</ele>
        <time>2020-10-25T10:57:20+01:00</time>
      </trkpt>
      <trkpt lat="45.05063" lon="5.51801">
        <ele>1186</ele>
        <time>2020-10-25T10:59:28+01:00</time>
      </trkpt>
      <trkpt lat="45.05019" lon="5.51802">
        <ele>1187</ele>
        <time>2021-08-08T22:17:06+02:00</time>
      </trkpt>
      <trkpt lat="45.05003" lon="5.51844">
        <ele>1189</ele>
        <time>2020-10-25T11:01:36+01:00</time>
      </trkpt>
      <trkpt lat="45.04944" lon="5.51894">
        <ele>1198</ele>
        <time>2020-10-25T11:01:36+01:00</time>
      </trkpt>
      <trkpt lat="45.04883" lon="5.51937">
        <ele>1208</ele>
        <time>2020-10-25T11:03:44+01:00</time>
      </trkpt>
      <trkpt lat="45.0483" lon="5.51996">
        <ele>1209</ele>
        <time>2020-10-25T11:05:52+01:00</time>
      </trkpt>
      <trkpt lat="45.04776" lon="5.52054">
        <ele>1215</ele>
        <time>2020-10-25T11:05:52+01:00</time>
      </trkpt>
      <trkpt lat="45.04717" lon="5.52102">
        <ele>1227</ele>
        <time>2020-10-25T11:08:00+01:00</time>
      </trkpt>
      <trkpt lat="45.04665" lon="5.52158">
        <ele>1230</ele>
        <time>2020-10-25T11:10:08+01:00</time>
      </trkpt>
      <trkpt lat="45.04604" lon="5.52187">
        <ele>1233</ele>
        <time>2020-10-25T11:20:48+01:00</time>
      </trkpt>
      <trkpt lat="45.04601" lon="5.52091">
        <ele>1236</ele>
        <time>2020-10-25T11:20:48+01:00</time>
      </trkpt>
      <trkpt lat="45.04602" lon="5.51995">
        <ele>1238</ele>
        <time>2020-10-25T11:22:56+01:00</time>
      </trkpt>
      <trkpt lat="45.04587" lon="5.51902">
        <ele>1244</ele>
        <time>2020-10-25T11:25:04+01:00</time>
      </trkpt>
      <trkpt lat="45.04607" lon="5.5181">
        <ele>1239</ele>
        <time>2020-10-25T11:27:12+01:00</time>
      </trkpt>
      <trkpt lat="45.04649" lon="5.51735">
        <ele>1235</ele>
        <time>2020-10-25T11:27:12+01:00</time>
      </trkpt>
      <trkpt lat="45.0467" lon="5.51644">
        <ele>1231</ele>
        <time>2020-10-25T11:29:20+01:00</time>
      </trkpt>
      <trkpt lat="45.0469" lon="5.51596">
        <ele>1231</ele>
        <time>2021-08-08T22:18:21+02:00</time>
      </trkpt>
      <trkpt lat="45.04671" lon="5.51548">
        <ele>1234</ele>
        <time>2020-10-25T11:29:20+01:00</time>
      </trkpt>
      <trkpt lat="45.04636" lon="5.51468">
        <ele>1236</ele>
        <time>2020-10-25T11:31:28+01:00</time>
      </trkpt>
      <trkpt lat="45.04669" lon="5.51383">
        <ele>1237</ele>
        <time>2020-10-25T11:33:36+01:00</time>
      </trkpt>
      <trkpt lat="45.04675" lon="5.51312">
        <ele>1232</ele>
        <time>2021-08-08T22:18:41+02:00</time>
      </trkpt>
      <trkpt lat="45.04648" lon="5.51292">
        <ele>1236</ele>
        <time>2020-10-25T11:35:44+01:00</time>
      </trkpt>
      <trkpt lat="45.04598" lon="5.51228">
        <ele>1236</ele>
        <time>2020-10-25T11:35:44+01:00</time>
      </trkpt>
      <trkpt lat="45.04534" lon="5.51197">
        <ele>1237</ele>
        <time>2020-10-25T11:37:52+01:00</time>
      </trkpt>
      <trkpt lat="45.04465" lon="5.51188">
        <ele>1242</ele>
        <time>2020-10-25T11:40:00+01:00</time>
      </trkpt>
      <trkpt lat="45.04411" lon="5.51131">
        <ele>1241</ele>
        <time>2020-10-25T11:40:00+01:00</time>
      </trkpt>
      <trkpt lat="45.0435" lon="5.51088">
        <ele>1246</ele>
        <time>2020-10-25T11:42:08+01:00</time>
      </trkpt>
      <trkpt lat="45.04283" lon="5.51071">
        <ele>1248</ele>
        <time>2020-10-25T11:42:08+01:00</time>
      </trkpt>
      <trkpt lat="45.04215" lon="5.51062">
        <ele>1250</ele>
        <time>2020-10-25T11:44:16+01:00</time>
      </trkpt>
      <trkpt lat="45.04149" lon="5.51043">
        <ele>1256</ele>
        <time>2020-10-25T11:59:12+01:00</time>
      </trkpt>
      <trkpt lat="45.04081" lon="5.51035">
        <ele>1256</ele>
        <time>2020-10-25T11:59:12+01:00</time>
      </trkpt>
      <trkpt lat="45.03973" lon="5.50999">
        <ele>1250</ele>
        <time>2020-10-25T12:01:20+01:00</time>
      </trkpt>
      <trkpt lat="45.03976" lon="5.51061">
        <ele>1261</ele>
        <time>2021-08-08T22:19:41+02:00</time>
      </trkpt>
      <trkpt lat="45.0405" lon="5.51101">
        <ele>1275</ele>
        <time>2020-10-25T12:05:36+01:00</time>
      </trkpt>
      <trkpt lat="45.04008" lon="5.51178">
        <ele>1300</ele>
        <time>2020-10-25T12:07:44+01:00</time>
      </trkpt>
      <trkpt lat="45.03973" lon="5.51196">
        <ele>1300</ele>
        <time>2021-08-08T22:19:56+02:00</time>
      </trkpt>
      <trkpt lat="45.03953" lon="5.51232">
        <ele>1300</ele>
        <time>2020-10-25T12:09:52+01:00</time>
      </trkpt>
      <trkpt lat="45.03916" lon="5.51267">
        <ele>1300</ele>
        <time>2021-08-08T22:20:06+02:00</time>
      </trkpt>
      <trkpt lat="45.03909" lon="5.51307">
        <ele>1301</ele>
        <time>2020-10-25T12:12:00+01:00</time>
      </trkpt>
      <trkpt lat="45.03864" lon="5.51379">
        <ele>1301</ele>
        <time>2020-10-25T12:12:00+01:00</time>
      </trkpt>
      <trkpt lat="45.0388" lon="5.51472">
        <ele>1300</ele>
        <time>2020-10-25T13:13:52+01:00</time>
      </trkpt>
      <trkpt lat="45.03938" lon="5.51521">
        <ele>1300</ele>
        <time>2020-10-25T13:16:00+01:00</time>
      </trkpt>
      <trkpt lat="45.03974" lon="5.51603">
        <ele>1298</ele>
        <time>2020-10-25T13:16:00+01:00</time>
      </trkpt>
      <trkpt lat="45.04003" lon="5.51689">
        <ele>1300</ele>
        <time>2020-10-25T13:18:08+01:00</time>
      </trkpt>
      <trkpt lat="45.04023" lon="5.51731">
        <ele>1298</ele>
        <time>2021-08-08T22:20:41+02:00</time>
      </trkpt>
      <trkpt lat="45.04055" lon="5.51751">
        <ele>1295</ele>
        <time>2020-10-25T13:22:24+01:00</time>
      </trkpt>
      <trkpt lat="45.041" lon="5.51823">
        <ele>1283</ele>
        <time>2020-10-25T13:22:24+01:00</time>
      </trkpt>
      <trkpt lat="45.04115" lon="5.51869">
        <ele>1280</ele>
        <time>2020-10-25T13:30:56+01:00</time>
      </trkpt>
      <trkpt lat="45.04076" lon="5.51948">
        <ele>1274</ele>
        <time>2020-10-25T13:30:56+01:00</time>
      </trkpt>
      <trkpt lat="45.04012" lon="5.51977">
        <ele>1257</ele>
        <time>2020-10-25T13:33:04+01:00</time>
      </trkpt>
      <trkpt lat="45.03947" lon="5.52002">
        <ele>1242</ele>
        <time>2020-10-25T13:35:12+01:00</time>
      </trkpt>
      <trkpt lat="45.03917" lon="5.52088">
        <ele>1218</ele>
        <time>2020-10-25T13:35:12+01:00</time>
      </trkpt>
      <trkpt lat="45.03958" lon="5.52194">
        <ele>1198</ele>
        <time>2020-10-25T13:37:20+01:00</time>
      </trkpt>
      <trkpt lat="45.04011" lon="5.52123">
        <ele>1221</ele>
        <time>2020-10-25T13:41:36+01:00</time>
      </trkpt>
      <trkpt lat="45.04052" lon="5.52085">
        <ele>1237</ele>
        <time>2021-08-08T22:21:31+02:00</time>
      </trkpt>
      <trkpt lat="45.04077" lon="5.52099">
        <ele>1237</ele>
        <time>2020-10-25T13:43:44+01:00</time>
      </trkpt>
      <trkpt lat="45.04144" lon="5.52105">
        <ele>1245</ele>
        <time>2020-10-25T13:45:52+01:00</time>
      </trkpt>
      <trkpt lat="45.04208" lon="5.5214">
        <ele>1240</ele>
        <time>2020-10-25T13:48:00+01:00</time>
      </trkpt>
      <trkpt lat="45.04276" lon="5.5214">
        <ele>1243</ele>
        <time>2020-10-25T13:48:00+01:00</time>
      </trkpt>
      <trkpt lat="45.04344" lon="5.52132">
        <ele>1249</ele>
        <time>2020-10-25T13:50:08+01:00</time>
      </trkpt>
      <trkpt lat="45.04407" lon="5.52166">
        <ele>1246</ele>
        <time>2020-10-25T13:52:16+01:00</time>
      </trkpt>
      <trkpt lat="45.04467" lon="5.52211">
        <ele>1241</ele>
        <time>2020-10-25T13:52:16+01:00</time>
      </trkpt>
      <trkpt lat="45.04533" lon="5.52225">
        <ele>1238</ele>
        <time>2020-10-25T13:58:40+01:00</time>
      </trkpt>
      <trkpt lat="45.04595" lon="5.52187">
        <ele>1233</ele>
        <time>2020-10-25T14:02:56+01:00</time>
      </trkpt>
      <trkpt lat="45.04661" lon="5.5216">
        <ele>1230</ele>
        <time>2020-10-25T14:02:56+01:00</time>
      </trkpt>
      <trkpt lat="45.04723" lon="5.52119">
        <ele>1229</ele>
        <time>2020-10-25T14:05:04+01:00</time>
      </trkpt>
      <trkpt lat="45.04789" lon="5.52096">
        <ele>1229</ele>
        <time>2020-10-25T14:05:04+01:00</time>
      </trkpt>
      <trkpt lat="45.04842" lon="5.52157">
        <ele>1238</ele>
        <time>2020-10-25T14:07:12+01:00</time>
      </trkpt>
      <trkpt lat="45.04875" lon="5.5224">
        <ele>1232</ele>
        <time>2020-10-25T14:07:12+01:00</time>
      </trkpt>
      <trkpt lat="45.04928" lon="5.523">
        <ele>1230</ele>
        <time>2020-10-25T14:09:20+01:00</time>
      </trkpt>
      <trkpt lat="45.0498" lon="5.52363">
        <ele>1230</ele>
        <time>2020-10-25T14:09:20+01:00</time>
      </trkpt>
      <trkpt lat="45.05047" lon="5.52378">
        <ele>1230</ele>
        <time>2020-10-25T14:11:28+01:00</time>
      </trkpt>
      <trkpt lat="45.05115" lon="5.52378">
        <ele>1236</ele>
        <time>2020-10-25T14:11:28+01:00</time>
      </trkpt>
      <trkpt lat="45.0518" lon="5.52406">
        <ele>1237</ele>
        <time>2020-10-25T14:15:44+01:00</time>
      </trkpt>
      <trkpt lat="45.05233" lon="5.52466">
        <ele>1231</ele>
        <time>2020-10-25T14:15:44+01:00</time>
      </trkpt>
      <trkpt lat="45.05285" lon="5.52527">
        <ele>1230</ele>
        <time>2020-10-25T14:17:52+01:00</time>
      </trkpt>
      <trkpt lat="45.05339" lon="5.52585">
        <ele>1229</ele>
        <time>2020-10-25T14:17:52+01:00</time>
      </trkpt>
      <trkpt lat="45.05399" lon="5.52632">
        <ele>1226</ele>
        <time>2020-10-25T14:20:00+01:00</time>
      </trkpt>
      <trkpt lat="45.05465" lon="5.52646">
        <ele>1217</ele>
        <time>2020-10-25T14:20:00+01:00</time>
      </trkpt>
      <trkpt lat="45.05531" lon="5.52669">
        <ele>1211</ele>
        <time>2020-10-25T14:20:00+01:00</time>
      </trkpt>
      <trkpt lat="45.0559" lon="5.52717">
        <ele>1212</ele>
        <time>2020-10-25T14:22:08+01:00</time>
      </trkpt>
      <trkpt lat="45.05656" lon="5.52692">
        <ele>1206</ele>
        <time>2020-10-25T14:22:08+01:00</time>
      </trkpt>
      <trkpt lat="45.05723" lon="5.52683">
        <ele>1206</ele>
        <time>2020-10-25T14:24:16+01:00</time>
      </trkpt>
      <trkpt lat="45.05787" lon="5.52714">
        <ele>1202</ele>
        <time>2020-10-25T14:24:16+01:00</time>
      </trkpt>
      <trkpt lat="45.05856" lon="5.52717">
        <ele>1201</ele>
        <time>2020-10-25T14:26:24+01:00</time>
      </trkpt>
      <trkpt lat="45.05923" lon="5.52736">
        <ele>1197</ele>
        <time>2020-10-25T14:26:24+01:00</time>
      </trkpt>
      <trkpt lat="45.05983" lon="5.52784">
        <ele>1195</ele>
        <time>2020-10-25T14:28:32+01:00</time>
      </trkpt>
      <trkpt lat="45.0605" lon="5.52801">
        <ele>1195</ele>
        <time>2020-10-25T14:28:32+01:00</time>
      </trkpt>
      <trkpt lat="45.06112" lon="5.5284">
        <ele>1192</ele>
        <time>2020-10-25T14:30:40+01:00</time>
      </trkpt>
      <trkpt lat="45.06177" lon="5.52871">
        <ele>1187</ele>
        <time>2020-10-25T14:32:48+01:00</time>
      </trkpt>
      <trkpt lat="45.06239" lon="5.52831">
        <ele>1187</ele>
        <time>2020-10-25T14:32:48+01:00</time>
      </trkpt>
      <trkpt lat="45.06271" lon="5.52746">
        <ele>1180</ele>
        <time>2020-10-25T14:34:56+01:00</time>
      </trkpt>
      <trkpt lat="45.0632" lon="5.5268">
        <ele>1174</ele>
        <time>2020-10-25T14:37:04+01:00</time>
      </trkpt>
      <trkpt lat="45.06268" lon="5.52619">
        <ele>1163</ele>
        <time>2020-10-25T14:39:12+01:00</time>
      </trkpt>
      <trkpt lat="45.06203" lon="5.52596">
        <ele>1157</ele>
        <time>2020-10-25T14:41:20+01:00</time>
      </trkpt>
      <trkpt lat="45.06174" lon="5.52508">
        <ele>1153</ele>
        <time>2020-10-25T14:45:36+01:00</time>
      </trkpt>
      <trkpt lat="45.0611" lon="5.52474">
        <ele>1147</ele>
        <time>2020-10-25T14:47:44+01:00</time>
      </trkpt>
      <trkpt lat="45.06046" lon="5.52444">
        <ele>1146</ele>
        <time>2020-10-25T14:49:52+01:00</time>
      </trkpt>
      <trkpt lat="45.0606" lon="5.52349">
        <ele>1136</ele>
        <time>2020-10-25T14:49:52+01:00</time>
      </trkpt>
    </trkseg>
  </trk>
</gpx>